logo
Search for airport 
image banner adimage banner adimage banner ad
image banner ad

VLLN - Luang Namtha Domestic

Located in , Lao People's Democratic Republic

ICAO - VLLN, IATA - LXG

Data provided by Airmate  

General information

Coordinates: N20°57'39" E101°24'9"
Elevation is 1798 feet MSL.
 
View others Airports in Louang Namtha

Operational data

Special qualification required
Current time UTC:
Current local time:
Weather
TAF: TAF VLLN 151700Z 1518/1618 32004KT 9999 SCT020 BKN100
View NOTAMs / SUP AIP / TFR affecting this airport [VIEW]
Communications frequencies: [VIEW]

Runways:

RWY identifierQFULength (ft)Width (ft)SurfaceLDA (ft)
18180°524998UNK
36524998UNK

Airport contact information

Address: Lao People's Democratic Republic

Satellite view of VLLN